首页
METAR-TAF:

METAR-TAF

机场 :

Tyndall Air Force Base

Panama City, 佛罗里达州, 美国

纬度: 30-04N, 经度: 085-35W, 海拔: 5米

当前天气观测

该预报发布于26分钟前的23:56 UTC
风速4节,风向
温度 16°C
湿度 42%
气压 1022 hPa
能見度: 16.1公里
天空无云

METAR: KPAM 182356Z AUTO 01004KT 10SM CLR 16/03 A3019 RMK AO2 SLP226 T01640031 10200 20164 51011 $

时间: 19:22 (00:22 UTC)

预报

该预报发布于3小时和56分钟前的20:26 UTC
预报有效从18日的 20点(UTC)到 19日的 24点(UTC)
风速10节,风向北转东北,有时为15节阵风
能见度10公里或以上
少量云层高于20000英尺
成为
从 18日的 23点(UTC)到 18日的 24点(UTC)
风速9节,风向北转东北
能见度10公里或以上
少量云层高于15000英尺
成为
从 19日的 08点(UTC)到 19日的 09点(UTC)
风速12节,风向北转东北,有时为18节阵风
能见度10公里或以上
散云层高于17000英尺
成为
从 19日的 23点(UTC)到 19日的 24点(UTC)
风速9节,风向北转东北
能见度10公里或以上
散云层高于15000英尺

TAF: KPAM 182026Z 1820/1924 03010G15KT 9999 FEW200 QNH3016INS BECMG 1823/1824 02009KT 9999 FEW150 510102 QNH3019INS BECMG 1908/1909 03012G18KT 9999 SCT170 QNH3016INS BECMG 1923/1924 03009KT 9999 SCT150 QNH3017INS TX21/1821Z TN07/1912Z

超过4000个机场的气象观测和天气预报(METAR&TAF报告)。

可查询的气象台以黄色和红色小点在地图上表示。

将鼠标移到小点上方,可查看气象台名称。

然后点击查看天气观测和预报。

如需切换地图:点击带黑十字的绿色按钮放大地图;点击带横线的绿色按钮缩小地图;或者点击绿色箭头查看邻近地区的地图。


METAR-TAF: